createdAt,value
2023-01-10T00:01:51.048Z,3.77
2023-01-10T00:04:18.049Z,3.43
2023-01-10T00:06:46.189Z,3.90
2023-01-10T00:09:13.295Z,3.93
2023-01-10T00:11:59.301Z,5.43
2023-01-10T00:14:29.952Z,4.57
2023-01-10T00:16:57.341Z,4.27
2023-01-10T00:19:24.383Z,3.70
2023-01-10T00:21:51.275Z,3.80
2023-01-10T00:24:22.386Z,3.70
2023-01-10T00:26:51.663Z,3.87
2023-01-10T00:29:20.716Z,4.07
2023-01-10T00:31:48.426Z,3.53
2023-01-10T00:34:15.630Z,4.37
2023-01-10T00:36:42.916Z,3.63
2023-01-10T00:39:11.228Z,3.30
2023-01-10T00:41:57.380Z,3.23
2023-01-10T00:44:24.397Z,3.00
2023-01-10T00:46:53.739Z,3.90
2023-01-10T00:49:20.995Z,4.43
2023-01-10T00:51:48.008Z,2.87
2023-01-10T00:54:16.540Z,3.03
2023-01-10T00:56:43.528Z,2.27
2023-01-10T00:59:10.659Z,4.20
2023-01-10T01:01:37.732Z,2.97
2023-01-10T01:04:04.970Z,3.63
2023-01-10T01:06:34.453Z,2.77
2023-01-10T01:09:03.749Z,3.20
2023-01-10T01:11:30.665Z,2.73
2023-01-10T01:13:57.573Z,2.73
2023-01-10T01:16:25.604Z,2.53
2023-01-10T01:18:52.638Z,3.50
2023-01-10T01:21:21.317Z,3.27
2023-01-10T01:23:48.245Z,3.57
2023-01-10T01:26:15.231Z,2.80
2023-01-10T01:28:43.128Z,3.50
2023-01-10T01:31:11.838Z,3.17
2023-01-10T01:33:38.889Z,3.23
2023-01-10T01:36:10.438Z,3.53
2023-01-10T01:38:38.617Z,3.27
2023-01-10T01:41:26.141Z,4.47
2023-01-10T01:44:05.352Z,3.30
2023-01-10T01:46:35.645Z,3.47
2023-01-10T01:49:06.675Z,2.40
2023-01-10T01:51:34.802Z,2.67
2023-01-10T01:54:09.260Z,3.03
2023-01-10T01:56:52.052Z,3.20
2023-01-10T01:59:30.466Z,2.43
2023-01-10T02:02:06.404Z,2.97
2023-01-10T02:04:46.543Z,2.80
2023-01-10T02:07:15.646Z,4.23
2023-01-10T02:09:54.081Z,2.93
2023-01-10T02:12:21.081Z,3.07
2023-01-10T02:14:50.657Z,1.93
2023-01-10T02:17:17.569Z,2.93
2023-01-10T02:19:56.238Z,2.37
2023-01-10T02:22:26.376Z,2.50
2023-01-10T02:25:26.743Z,3.83
2023-01-10T02:28:19.048Z,3.37
2023-01-10T02:30:55.465Z,2.57
2023-01-10T02:33:31.072Z,3.10
2023-01-10T02:36:00.357Z,2.37
2023-01-10T02:38:52.083Z,4.00
2023-01-10T02:41:34.089Z,3.27
2023-01-10T02:44:31.178Z,2.20
2023-01-10T02:47:00.781Z,2.33
2023-01-10T02:49:27.750Z,2.63
2023-01-10T02:51:55.750Z,2.60
2023-01-10T02:54:30.757Z,4.30
2023-01-10T02:57:15.854Z,2.80
2023-01-10T03:00:13.979Z,2.07
2023-01-10T03:03:21.263Z,2.43
2023-01-10T03:06:08.146Z,2.77
2023-01-10T03:08:38.089Z,2.93
2023-01-10T03:11:11.086Z,2.23
2023-01-10T03:13:50.519Z,2.57
2023-01-10T03:16:20.069Z,2.83
2023-01-10T03:19:03.784Z,2.50
2023-01-10T03:21:33.326Z,2.20
2023-01-10T03:24:07.666Z,2.00
2023-01-10T03:26:49.387Z,2.97
2023-01-10T03:29:25.396Z,2.80
2023-01-10T03:32:01.250Z,2.33
2023-01-10T03:34:29.250Z,2.10
2023-01-10T03:37:19.120Z,1.93
2023-01-10T03:40:15.568Z,2.20
2023-01-10T03:43:48.408Z,1.63
2023-01-10T03:46:29.698Z,3.20
2023-01-10T03:48:58.700Z,1.90
2023-01-10T03:51:27.650Z,2.43
2023-01-10T03:53:54.775Z,3.57
2023-01-10T03:56:21.836Z,2.60
2023-01-10T03:58:48.836Z,2.30
2023-01-10T04:01:16.335Z,2.17
2023-01-10T04:03:43.427Z,2.03
2023-01-10T04:06:10.906Z,2.37
2023-01-10T04:08:37.813Z,2.47
2023-01-10T04:11:04.959Z,2.10
2023-01-10T04:13:32.340Z,3.33
2023-01-10T04:16:00.877Z,2.03
2023-01-10T04:18:28.097Z,3.13
2023-01-10T04:20:55.030Z,2.23
2023-01-10T04:23:21.957Z,2.57
2023-01-10T04:25:48.929Z,2.13
2023-01-10T04:28:15.896Z,2.40
2023-01-10T04:30:45.356Z,4.00
2023-01-10T04:33:12.593Z,2.80
2023-01-10T04:35:39.547Z,3.77
2023-01-10T04:38:09.480Z,2.30
2023-01-10T04:40:36.406Z,2.40
2023-01-10T04:43:03.342Z,2.33
2023-01-10T04:45:30.547Z,2.73
2023-01-10T04:47:59.308Z,2.87
2023-01-10T04:50:27.324Z,2.37
2023-01-10T04:52:57.083Z,3.60
2023-01-10T04:55:24.097Z,2.57
2023-01-10T04:57:51.002Z,2.67
2023-01-10T05:00:18.687Z,2.40
2023-01-10T05:02:45.819Z,2.40
2023-01-10T05:05:14.013Z,2.30
2023-01-10T05:07:41.317Z,2.20
2023-01-10T05:10:09.416Z,2.83
2023-01-10T05:12:36.357Z,2.63
2023-01-10T05:15:03.984Z,2.83
2023-01-10T05:17:33.578Z,2.37
2023-01-10T05:20:00.518Z,2.90
2023-01-10T05:22:28.217Z,2.43
2023-01-10T05:24:55.131Z,2.90
2023-01-10T05:27:23.473Z,2.30
2023-01-10T05:29:50.397Z,2.20
2023-01-10T05:32:20.657Z,2.20
2023-01-10T05:34:47.592Z,2.73
2023-01-10T05:37:14.531Z,2.60
2023-01-10T05:39:43.603Z,2.73
2023-01-10T05:42:10.509Z,2.43
2023-01-10T05:44:37.682Z,3.10
2023-01-10T05:47:05.797Z,2.70
2023-01-10T05:49:34.189Z,3.03
2023-01-10T05:52:01.228Z,3.27
2023-01-10T05:54:29.813Z,3.00
2023-01-10T05:56:59.684Z,2.57
2023-01-10T05:59:28.460Z,2.60
2023-01-10T06:01:57.196Z,2.50
2023-01-10T06:04:24.160Z,2.73
2023-01-10T06:06:54.087Z,2.30
2023-01-10T06:09:21.020Z,2.57
2023-01-10T06:11:47.966Z,2.60
2023-01-10T06:14:19.698Z,2.50
2023-01-10T06:16:47.499Z,2.90
2023-01-10T06:19:15.899Z,2.50
2023-01-10T06:21:42.997Z,3.17
2023-01-10T06:24:10.247Z,2.67
2023-01-10T06:26:37.197Z,4.07
2023-01-10T06:29:04.173Z,2.50
2023-01-10T06:31:31.152Z,3.40
2023-01-10T06:33:59.123Z,3.00
2023-01-10T06:36:26.020Z,2.63
2023-01-10T06:38:52.992Z,2.90
2023-01-10T06:41:19.952Z,2.90
2023-01-10T06:43:49.159Z,2.90
2023-01-10T06:46:18.330Z,2.70
2023-01-10T06:48:46.880Z,3.17
2023-01-10T06:51:15.737Z,2.80
2023-01-10T06:53:43.719Z,2.80
2023-01-10T06:56:11.373Z,2.67
2023-01-10T06:58:39.341Z,3.30
2023-01-10T07:01:17.772Z,2.87
2023-01-10T07:03:44.947Z,2.83
2023-01-10T07:06:12.069Z,2.67
2023-01-10T07:08:44.962Z,4.00
2023-01-10T07:11:13.785Z,2.80
2023-01-10T07:13:41.038Z,3.23
2023-01-10T07:16:14.697Z,3.17
2023-01-10T07:18:43.398Z,3.93
2023-01-10T07:21:11.201Z,3.47
2023-01-10T07:23:38.754Z,3.27
2023-01-10T07:26:10.602Z,3.37
2023-01-10T07:28:37.865Z,3.30
2023-01-10T07:31:06.502Z,4.37
2023-01-10T07:33:33.496Z,3.37
2023-01-10T07:36:01.636Z,3.43
2023-01-10T07:38:29.163Z,3.20
2023-01-10T07:40:56.129Z,3.20
2023-01-10T07:43:23.088Z,3.30
2023-01-10T07:45:50.129Z,4.07
2023-01-10T07:48:17.167Z,3.43
2023-01-10T07:50:44.162Z,3.33
2023-01-10T07:53:11.118Z,3.47
2023-01-10T07:55:39.816Z,3.50
2023-01-10T07:58:10.700Z,3.30
2023-01-10T08:00:37.950Z,3.50
2023-01-10T08:03:06.364Z,3.50
2023-01-10T08:05:33.672Z,4.60
2023-01-10T08:08:08.753Z,3.60
2023-01-10T08:10:37.308Z,4.77
2023-01-10T08:13:17.748Z,4.30
2023-01-10T08:15:47.343Z,3.40
2023-01-10T08:18:14.499Z,5.13
2023-01-10T08:20:41.508Z,4.50
2023-01-10T08:23:08.472Z,4.80
2023-01-10T08:25:35.532Z,4.63
2023-01-10T08:28:03.193Z,3.40
2023-01-10T08:30:30.278Z,3.60
2023-01-10T08:32:57.403Z,3.90
2023-01-10T08:35:24.363Z,3.50
2023-01-10T08:37:51.265Z,3.50
2023-01-10T08:40:18.388Z,3.90
2023-01-10T08:42:45.346Z,3.63
2023-01-10T08:45:12.519Z,3.87
2023-01-10T08:47:42.697Z,5.40
2023-01-10T08:50:10.224Z,6.07
2023-01-10T08:52:37.168Z,7.10
2023-01-10T08:55:04.307Z,6.23
2023-01-10T08:57:32.459Z,6.17
2023-01-10T08:59:59.488Z,16.53
2023-01-10T09:02:27.817Z,15.00
2023-01-10T09:04:54.831Z,15.80
2023-01-10T09:07:22.185Z,25.73
2023-01-10T09:09:49.155Z,13.43
2023-01-10T09:12:34.337Z,12.93
2023-01-10T09:15:01.294Z,9.57
2023-01-10T09:17:28.247Z,5.80
2023-01-10T09:19:56.382Z,5.30
2023-01-10T09:22:23.878Z,5.80
2023-01-10T09:24:50.901Z,5.27
2023-01-10T09:27:17.799Z,5.47
2023-01-10T09:29:44.743Z,5.93
2023-01-10T09:32:11.643Z,5.73
2023-01-10T09:34:38.625Z,4.43
2023-01-10T09:37:05.612Z,5.43
2023-01-10T09:39:33.938Z,6.23
2023-01-10T09:42:28.315Z,4.20
2023-01-10T09:45:06.433Z,4.10
2023-01-10T09:47:46.518Z,4.10
2023-01-10T09:50:18.723Z,4.37
2023-01-10T09:52:53.498Z,3.40
2023-01-10T09:55:39.139Z,3.87
2023-01-10T09:58:13.122Z,3.20
2023-01-10T10:01:01.547Z,4.13
2023-01-10T10:03:31.775Z,3.63
2023-01-10T10:06:11.190Z,3.27
2023-01-10T10:08:40.445Z,2.93
2023-01-10T10:11:16.239Z,4.40
2023-01-10T10:14:12.095Z,3.47
2023-01-10T10:16:57.915Z,3.30
2023-01-10T10:20:02.173Z,2.87
2023-01-10T10:22:41.634Z,3.50
2023-01-10T10:25:14.377Z,3.73
2023-01-10T10:28:15.057Z,4.63
2023-01-10T10:30:50.467Z,4.47
2023-01-10T10:33:20.413Z,3.70
2023-01-10T10:35:57.120Z,4.50
2023-01-10T10:38:37.736Z,4.57
2023-01-10T10:41:10.932Z,4.17
2023-01-10T10:43:40.782Z,5.20
2023-01-10T10:46:14.749Z,3.97
2023-01-10T10:49:08.292Z,4.33
2023-01-10T10:51:45.308Z,4.63
2023-01-10T10:54:14.555Z,5.43
2023-01-10T10:56:41.899Z,5.13
2023-01-10T10:59:09.097Z,6.17
2023-01-10T11:01:36.179Z,3.50
2023-01-10T11:04:13.788Z,3.63
2023-01-10T11:06:48.750Z,5.87
2023-01-10T11:09:52.418Z,4.30
2023-01-10T11:12:23.455Z,6.03
2023-01-10T11:14:52.186Z,4.57
2023-01-10T11:17:27.598Z,7.10
2023-01-10T11:20:15.837Z,5.23
2023-01-10T11:22:51.596Z,4.83
2023-01-10T11:25:21.169Z,3.50
2023-01-10T11:27:51.615Z,6.87
2023-01-10T11:30:23.104Z,4.50
2023-01-10T11:32:54.623Z,5.57
2023-01-10T11:35:30.392Z,9.70
2023-01-10T11:38:18.776Z,6.13
2023-01-10T11:41:00.439Z,4.20
2023-01-10T11:43:33.944Z,4.00
2023-01-10T11:46:25.915Z,4.43
2023-01-10T11:49:12.760Z,5.70
2023-01-10T11:52:03.490Z,4.70
2023-01-10T11:54:32.249Z,5.13
2023-01-10T11:57:22.711Z,4.30
2023-01-10T11:59:55.018Z,4.90
2023-01-10T12:02:25.048Z,4.90
2023-01-10T12:04:54.706Z,6.43
2023-01-10T12:07:22.561Z,5.60
2023-01-10T12:10:02.827Z,7.90
2023-01-10T12:12:35.641Z,5.63
2023-01-10T12:15:24.486Z,5.07
2023-01-10T12:17:52.551Z,3.57
2023-01-10T12:20:19.639Z,3.70
2023-01-10T12:22:51.553Z,4.83
2023-01-10T12:25:23.108Z,4.23
2023-01-10T12:27:53.041Z,3.30
2023-01-10T12:30:33.643Z,3.73
2023-01-10T12:33:12.696Z,4.43
2023-01-10T12:35:53.520Z,5.20
2023-01-10T12:38:58.901Z,2.90
2023-01-10T12:41:53.235Z,2.90
2023-01-10T12:44:27.867Z,2.67
2023-01-10T12:47:10.066Z,3.83
2023-01-10T12:49:58.583Z,2.70
2023-01-10T12:52:46.688Z,3.00
2023-01-10T12:55:15.921Z,2.87
2023-01-10T12:57:46.524Z,3.40
2023-01-10T13:00:24.344Z,2.70
2023-01-10T13:02:55.039Z,2.70
2023-01-10T13:05:25.184Z,2.80
2023-01-10T13:07:55.642Z,3.07
2023-01-10T13:10:24.778Z,2.30
2023-01-10T13:13:04.697Z,3.53
2023-01-10T13:15:45.219Z,2.37
2023-01-10T13:18:29.422Z,3.63
2023-01-10T13:21:04.158Z,3.57
2023-01-10T13:23:34.171Z,2.00
2023-01-10T13:26:05.252Z,2.43
2023-01-10T13:28:34.845Z,2.10
2023-01-10T13:31:23.067Z,2.70
2023-01-10T13:33:59.097Z,3.30
2023-01-10T13:36:30.039Z,2.70
2023-01-10T13:39:00.895Z,2.23
2023-01-10T13:42:17.446Z,4.03
2023-01-10T13:45:02.738Z,2.77
2023-01-10T13:47:46.277Z,2.43
2023-01-10T13:50:25.660Z,1.93
2023-01-10T13:53:15.449Z,2.97
2023-01-10T13:55:42.965Z,2.10
2023-01-10T13:58:09.847Z,2.00
2023-01-10T14:00:55.573Z,2.37
2023-01-10T14:03:50.618Z,2.53
2023-01-10T14:06:29.924Z,2.10
2023-01-10T14:09:00.267Z,2.77
2023-01-10T14:11:43.333Z,2.50
2023-01-10T14:14:25.537Z,2.57
2023-01-10T14:16:56.757Z,2.27
2023-01-10T14:19:29.008Z,2.20
2023-01-10T14:21:58.741Z,1.93
2023-01-10T14:24:40.021Z,5.13
2023-01-10T14:27:14.125Z,2.00
2023-01-10T14:29:57.909Z,1.73
2023-01-10T14:32:35.623Z,1.90
2023-01-10T14:35:06.324Z,1.70
2023-01-10T14:37:42.114Z,1.80
2023-01-10T14:40:41.096Z,3.30
2023-01-10T14:43:13.940Z,2.50
2023-01-10T14:45:48.798Z,1.97
2023-01-10T14:48:24.742Z,2.20
2023-01-10T14:50:51.776Z,2.43
2023-01-10T14:53:30.264Z,1.53
2023-01-10T14:55:58.610Z,2.00
2023-01-10T14:58:25.565Z,1.83
2023-01-10T15:00:54.910Z,1.70
2023-01-10T15:03:24.903Z,1.97
2023-01-10T15:05:54.944Z,2.40
2023-01-10T15:08:31.951Z,2.00
2023-01-10T15:11:09.201Z,1.67
2023-01-10T15:13:46.017Z,1.83
2023-01-10T15:16:24.778Z,2.07
2023-01-10T15:18:52.841Z,2.13
2023-01-10T15:21:22.207Z,1.67
2023-01-10T15:23:50.431Z,1.80
2023-01-10T15:26:21.179Z,2.20
2023-01-10T15:29:10.100Z,1.93
2023-01-10T15:31:38.619Z,1.70
2023-01-10T15:34:11.272Z,2.23
2023-01-10T15:36:47.938Z,1.80
2023-01-10T15:39:28.565Z,2.27
2023-01-10T15:41:59.348Z,2.47
2023-01-10T15:44:38.392Z,2.90
2023-01-10T15:47:06.955Z,2.70
2023-01-10T15:49:34.065Z,4.57
2023-01-10T15:52:01.149Z,5.27
2023-01-10T15:54:30.723Z,5.33
2023-01-10T15:57:14.895Z,4.00
2023-01-10T15:59:47.526Z,3.90
2023-01-10T16:02:29.439Z,4.20
2023-01-10T16:05:05.629Z,3.67
2023-01-10T16:07:41.779Z,4.03
2023-01-10T16:10:17.758Z,3.47
2023-01-10T16:13:03.623Z,3.00
2023-01-10T16:15:35.514Z,3.10
2023-01-10T16:18:02.892Z,3.90
2023-01-10T16:20:33.806Z,3.70
2023-01-10T16:23:01.378Z,3.07
2023-01-10T16:25:35.456Z,3.23
2023-01-10T16:28:02.764Z,4.63
2023-01-10T16:30:32.950Z,3.10
2023-01-10T16:33:09.102Z,2.60
2023-01-10T16:35:36.214Z,4.23
2023-01-10T16:38:03.878Z,3.10
2023-01-10T16:40:37.074Z,4.07
2023-01-10T16:43:21.529Z,4.07
2023-01-10T16:45:51.691Z,3.27
2023-01-10T16:48:20.284Z,3.20
2023-01-10T16:50:48.754Z,4.50
2023-01-10T16:53:17.518Z,3.90
2023-01-10T16:55:46.933Z,4.03
2023-01-10T16:58:15.363Z,4.20
2023-01-10T17:00:44.121Z,5.10
2023-01-10T17:03:21.965Z,2.63
2023-01-10T17:05:50.429Z,3.37
2023-01-10T17:08:20.626Z,2.80
2023-01-10T17:10:51.728Z,3.73
2023-01-10T17:13:27.266Z,4.60
2023-01-10T17:15:55.247Z,3.03
2023-01-10T17:18:24.872Z,3.03
2023-01-10T17:20:52.513Z,3.40
2023-01-10T17:23:19.389Z,4.33
2023-01-10T17:25:48.448Z,8.93
2023-01-10T17:28:16.283Z,10.90
2023-01-10T17:30:43.845Z,8.60
2023-01-10T17:33:12.235Z,8.10
2023-01-10T17:35:40.782Z,6.63
2023-01-10T17:38:11.102Z,5.57
2023-01-10T17:40:45.958Z,6.13
2023-01-10T17:43:14.019Z,6.60
2023-01-10T17:45:46.204Z,4.47
2023-01-10T17:48:18.676Z,4.93
2023-01-10T17:50:47.817Z,5.57
2023-01-10T17:53:17.047Z,6.10
2023-01-10T17:55:48.400Z,4.97
2023-01-10T17:58:17.311Z,4.70
2023-01-10T18:00:45.941Z,4.70
2023-01-10T18:03:13.369Z,6.33
2023-01-10T18:05:48.045Z,6.77
2023-01-10T18:08:15.082Z,6.17
2023-01-10T18:10:42.020Z,7.83
2023-01-10T18:13:12.530Z,10.17
2023-01-10T18:15:45.224Z,10.87
2023-01-10T18:18:13.204Z,12.00
2023-01-10T18:20:44.464Z,9.43
2023-01-10T18:23:21.272Z,9.03
2023-01-10T18:25:54.595Z,8.17
2023-01-10T18:28:35.266Z,11.57
2023-01-10T18:31:12.895Z,6.63
2023-01-10T18:33:40.629Z,10.30
2023-01-10T18:36:17.117Z,7.70
2023-01-10T18:38:45.982Z,7.53
2023-01-10T18:41:18.563Z,8.17
2023-01-10T18:43:46.753Z,9.53
2023-01-10T18:46:20.147Z,8.30
2023-01-10T18:48:50.020Z,10.53
2023-01-10T18:51:19.048Z,19.37
2023-01-10T18:53:47.583Z,8.77
2023-01-10T18:56:16.162Z,4.47
2023-01-10T18:58:43.506Z,4.43
2023-01-10T19:01:12.651Z,4.33
2023-01-10T19:03:40.436Z,6.07
2023-01-10T19:06:11.974Z,4.50
2023-01-10T19:08:40.494Z,5.67
2023-01-10T19:11:14.286Z,4.03
2023-01-10T19:13:43.285Z,3.67
2023-01-10T19:16:25.469Z,4.87
2023-01-10T19:18:57.910Z,4.23
2023-01-10T19:21:27.339Z,4.23
2023-01-10T19:23:57.884Z,5.10
2023-01-10T19:26:26.123Z,5.10
2023-01-10T19:28:54.365Z,4.37
2023-01-10T19:31:24.901Z,3.87
2023-01-10T19:33:52.678Z,5.30
2023-01-10T19:36:25.613Z,4.77
2023-01-10T19:38:57.860Z,4.33
2023-01-10T19:41:26.574Z,4.57
2023-01-10T19:43:59.097Z,4.10
2023-01-10T19:46:27.235Z,4.10
2023-01-10T19:48:59.048Z,5.07
2023-01-10T19:51:29.787Z,6.00
2023-01-10T19:53:58.128Z,6.23
2023-01-10T19:56:27.666Z,5.00
2023-01-10T19:58:55.121Z,5.10
2023-01-10T20:01:51.859Z,5.97
2023-01-10T20:04:19.737Z,5.00
2023-01-10T20:06:47.901Z,5.47
2023-01-10T20:09:15.668Z,4.73
2023-01-10T20:11:46.187Z,5.47
2023-01-10T20:14:19.661Z,4.53
2023-01-10T20:16:49.904Z,4.83
2023-01-10T20:19:17.503Z,4.70
2023-01-10T20:21:44.969Z,4.90
2023-01-10T20:24:18.295Z,4.87
2023-01-10T20:26:47.664Z,5.20
2023-01-10T20:29:15.647Z,4.20
2023-01-10T20:31:43.525Z,4.40
2023-01-10T20:34:14.672Z,4.83
2023-01-10T20:36:44.281Z,4.53
2023-01-10T20:39:11.730Z,4.13
2023-01-10T20:41:41.393Z,4.97
2023-01-10T20:44:09.948Z,3.93
2023-01-10T20:46:39.315Z,4.00
2023-01-10T20:49:06.731Z,4.03
2023-01-10T20:51:37.768Z,4.27
2023-01-10T20:54:08.232Z,3.33
2023-01-10T20:56:35.827Z,3.70
2023-01-10T20:59:03.546Z,3.83
2023-01-10T21:01:35.203Z,5.03
2023-01-10T21:04:05.150Z,5.73
2023-01-10T21:06:32.825Z,4.07
2023-01-10T21:09:00.766Z,4.73
2023-01-10T21:11:28.212Z,4.43
2023-01-10T21:13:55.192Z,5.17
2023-01-10T21:16:22.855Z,4.83
2023-01-10T21:18:50.700Z,6.13
2023-01-10T21:21:20.384Z,8.23
2023-01-10T21:23:47.441Z,7.87
2023-01-10T21:26:16.172Z,4.90
2023-01-10T21:28:46.786Z,8.83
2023-01-10T21:31:16.604Z,11.07
2023-01-10T21:33:43.948Z,8.90
2023-01-10T21:36:12.784Z,8.47
2023-01-10T21:38:40.924Z,7.03
2023-01-10T21:41:14.753Z,7.03
2023-01-10T21:43:46.172Z,5.13
2023-01-10T21:46:13.272Z,6.50
2023-01-10T21:48:40.258Z,5.93
2023-01-10T21:51:07.243Z,5.43
2023-01-10T21:53:34.248Z,5.73
2023-01-10T21:56:01.178Z,6.43
2023-01-10T21:58:28.106Z,4.50
2023-01-10T22:00:57.598Z,6.13
2023-01-10T22:03:24.690Z,6.37
2023-01-10T22:05:51.714Z,6.60
2023-01-10T22:08:18.689Z,4.23
2023-01-10T22:10:45.686Z,4.10
2023-01-10T22:13:12.657Z,4.60
2023-01-10T22:15:41.181Z,4.00
2023-01-10T22:18:08.676Z,3.93
2023-01-10T22:20:36.898Z,3.87
2023-01-10T22:23:03.861Z,4.07
2023-01-10T22:25:30.776Z,3.67
2023-01-10T22:27:57.795Z,3.53
2023-01-10T22:30:24.701Z,4.33
2023-01-10T22:32:56.506Z,4.53
2023-01-10T22:35:26.196Z,4.40
2023-01-10T22:37:56.724Z,6.97
2023-01-10T22:40:24.230Z,3.20
2023-01-10T22:42:54.864Z,3.90
2023-01-10T22:45:23.125Z,3.27
2023-01-10T22:47:50.585Z,4.23
2023-01-10T22:50:18.500Z,4.23
2023-01-10T22:52:48.951Z,4.53
2023-01-10T22:55:17.568Z,3.63
2023-01-10T22:57:47.993Z,3.43
2023-01-10T23:03:03.223Z,5.03
2023-01-10T23:05:30.166Z,3.97
2023-01-10T23:07:57.336Z,4.00
2023-01-10T23:10:30.468Z,3.90
2023-01-10T23:12:58.166Z,4.87
2023-01-10T23:15:25.300Z,4.17
2023-01-10T23:17:53.243Z,4.17
2023-01-10T23:20:20.337Z,4.37
2023-01-10T23:22:47.196Z,3.60
2023-01-10T23:25:14.091Z,3.20
2023-01-10T23:27:42.226Z,4.30
2023-01-10T23:30:10.507Z,4.47
2023-01-10T23:32:37.670Z,3.30
2023-01-10T23:35:04.790Z,3.43
2023-01-10T23:37:31.750Z,5.37
2023-01-10T23:39:58.606Z,3.97
2023-01-10T23:42:25.539Z,3.57
2023-01-10T23:44:55.512Z,3.97
2023-01-10T23:47:22.506Z,3.67
2023-01-10T23:49:49.373Z,3.73
2023-01-10T23:52:16.868Z,4.87
2023-01-10T23:54:43.772Z,3.70
2023-01-10T23:57:11.019Z,4.83
2023-01-10T23:59:37.921Z,3.90
